createdAt,value
2018-02-16T00:00:19.256Z,90.39
2018-02-16T00:02:47.133Z,90.15
2018-02-16T00:05:14.754Z,90.49
2018-02-16T00:07:42.382Z,91.36
2018-02-16T00:10:09.942Z,91.23
2018-02-16T00:12:37.742Z,91.04
2018-02-16T00:15:05.415Z,90.73
2018-02-16T00:17:32.969Z,91.10
2018-02-16T00:20:00.975Z,91.54
2018-02-16T00:22:28.554Z,91.17
2018-02-16T00:24:56.176Z,90.72
2018-02-16T00:27:23.775Z,90.78
2018-02-16T00:29:51.358Z,90.45
2018-02-16T00:32:18.886Z,91.42
2018-02-16T00:34:46.463Z,91.26
2018-02-16T00:37:14.038Z,91.60
2018-02-16T00:39:41.911Z,91.25
2018-02-16T00:42:09.469Z,91.93
2018-02-16T00:44:36.998Z,91.76
2018-02-16T00:47:04.547Z,91.16
2018-02-16T00:49:32.105Z,91.11
2018-02-16T00:51:59.650Z,90.82
2018-02-16T00:54:27.228Z,90.66
2018-02-16T00:56:54.916Z,90.58
2018-02-16T00:59:22.709Z,90.61
2018-02-16T01:01:50.315Z,90.14
2018-02-16T01:04:17.908Z,90.48
2018-02-16T01:06:45.514Z,90.47
2018-02-16T01:09:13.072Z,90.63
2018-02-16T01:11:40.649Z,90.67
2018-02-16T01:14:08.181Z,90.28
2018-02-16T01:16:35.699Z,91.03
2018-02-16T01:19:03.281Z,90.90
2018-02-16T01:21:30.982Z,90.46
2018-02-16T01:23:58.533Z,90.43
2018-02-16T01:26:26.060Z,90.91
2018-02-16T01:28:56.811Z,90.49
2018-02-16T01:31:24.900Z,91.01
2018-02-16T01:33:52.612Z,90.67
2018-02-16T01:36:20.443Z,91.04
2018-02-16T01:38:48.054Z,90.58
2018-02-16T01:41:15.704Z,90.46
2018-02-16T01:43:43.353Z,90.05
2018-02-16T01:46:11.023Z,90.12
2018-02-16T01:48:38.579Z,89.98
2018-02-16T01:51:06.130Z,91.22
2018-02-16T01:53:33.658Z,91.43
2018-02-16T01:56:01.216Z,90.94
2018-02-16T01:58:28.762Z,90.45
2018-02-16T02:00:56.310Z,90.50
2018-02-16T02:03:23.937Z,90.53
2018-02-16T02:05:51.600Z,90.35
2018-02-16T02:08:19.122Z,90.81
2018-02-16T02:10:46.697Z,90.59
2018-02-16T02:13:14.555Z,90.33
2018-02-16T02:15:42.102Z,91.12
2018-02-16T02:18:09.879Z,90.78
2018-02-16T02:20:37.834Z,90.56
2018-02-16T02:23:05.803Z,90.42
2018-02-16T02:25:35.639Z,90.11
2018-02-16T02:28:06.064Z,90.03
2018-02-16T02:30:33.891Z,90.13
2018-02-16T02:33:01.673Z,90.28
2018-02-16T02:35:29.249Z,90.64
2018-02-16T02:37:56.830Z,90.60
2018-02-16T02:40:24.352Z,90.83
2018-02-16T02:42:51.957Z,90.25
2018-02-16T02:45:19.538Z,90.84
2018-02-16T02:47:47.086Z,91.17
2018-02-16T02:50:14.641Z,91.08
2018-02-16T02:52:42.190Z,91.05
2018-02-16T02:55:09.783Z,90.92
2018-02-16T02:57:37.318Z,90.81
2018-02-16T03:00:04.946Z,90.69
2018-02-16T03:02:32.531Z,90.18
2018-02-16T03:05:00.098Z,90.21
2018-02-16T03:07:27.674Z,90.24
2018-02-16T03:09:55.276Z,90.57
2018-02-16T03:12:22.831Z,91.75
2018-02-16T03:14:50.353Z,90.88
2018-02-16T03:17:18.762Z,91.16
2018-02-16T03:19:46.791Z,91.71
2018-02-16T03:22:14.949Z,92.40
2018-02-16T03:24:42.918Z,91.93
2018-02-16T03:27:11.154Z,91.61
2018-02-16T03:29:38.854Z,92.32
2018-02-16T03:32:06.897Z,92.44
2018-02-16T03:34:34.751Z,92.11
2018-02-16T03:37:02.501Z,91.31
2018-02-16T03:39:30.233Z,91.04
2018-02-16T03:41:58.089Z,90.82
2018-02-16T03:44:25.661Z,91.16
2018-02-16T03:46:53.383Z,91.99
2018-02-16T03:49:21.243Z,92.51
2018-02-16T03:51:49.057Z,91.44
2018-02-16T03:54:17.070Z,90.96
2018-02-16T03:56:44.680Z,90.71
2018-02-16T03:59:12.522Z,90.92
2018-02-16T04:01:40.403Z,91.34
2018-02-16T04:04:08.331Z,90.74
2018-02-16T04:06:36.180Z,90.35
2018-02-16T04:09:05.161Z,90.01
2018-02-16T04:11:32.894Z,90.25
2018-02-16T04:14:00.556Z,90.29
2018-02-16T04:16:28.135Z,90.37
2018-02-16T04:18:55.667Z,90.37
2018-02-16T04:21:23.218Z,90.29
2018-02-16T04:23:50.757Z,90.02
2018-02-16T04:26:18.349Z,90.26
2018-02-16T04:28:45.906Z,90.18
2018-02-16T04:31:13.471Z,90.17
2018-02-16T04:33:41.054Z,90.25
2018-02-16T04:36:08.606Z,90.80
2018-02-16T04:38:36.181Z,90.43
2018-02-16T04:41:03.711Z,91.04
2018-02-16T04:43:31.266Z,90.70
2018-02-16T04:45:58.826Z,90.54
2018-02-16T04:48:26.419Z,90.14
2018-02-16T04:50:54.071Z,90.23
2018-02-16T04:53:21.677Z,90.57
2018-02-16T04:55:49.286Z,90.56
2018-02-16T04:58:16.826Z,90.38
2018-02-16T05:00:44.678Z,89.96
2018-02-16T05:03:12.206Z,89.89
2018-02-16T05:05:40.006Z,90.19
2018-02-16T05:08:07.696Z,90.20
2018-02-16T05:10:35.483Z,90.64
2018-02-16T05:13:03.019Z,90.49
2018-02-16T05:15:30.593Z,90.35
2018-02-16T05:17:58.152Z,90.23
2018-02-16T05:20:25.697Z,90.45
2018-02-16T05:22:53.274Z,90.75
2018-02-16T05:25:20.828Z,90.29
2018-02-16T05:27:48.430Z,90.47
2018-02-16T05:30:15.959Z,90.10
2018-02-16T05:32:43.559Z,90.12
2018-02-16T05:35:11.140Z,89.95
2018-02-16T05:37:38.669Z,89.80
2018-02-16T05:40:06.259Z,89.91
2018-02-16T05:42:33.843Z,89.93
2018-02-16T05:45:01.390Z,90.61
2018-02-16T05:47:28.920Z,90.40
2018-02-16T05:49:56.478Z,89.79
2018-02-16T05:52:24.043Z,90.46
2018-02-16T05:54:51.629Z,90.19
2018-02-16T05:57:19.176Z,90.61
2018-02-16T05:59:46.710Z,91.62
2018-02-16T06:02:14.292Z,91.91
2018-02-16T06:04:41.840Z,92.07
2018-02-16T06:07:09.513Z,91.64
2018-02-16T06:09:37.195Z,92.10
2018-02-16T06:12:05.150Z,90.93
2018-02-16T06:14:32.700Z,90.54
2018-02-16T06:17:00.276Z,90.05
2018-02-16T06:19:27.831Z,90.08
2018-02-16T06:21:55.447Z,90.01
2018-02-16T06:24:22.979Z,90.14
2018-02-16T06:26:50.575Z,90.31
2018-02-16T06:29:18.115Z,90.32
2018-02-16T06:31:45.661Z,89.99
2018-02-16T06:34:13.319Z,90.46
2018-02-16T06:36:40.961Z,89.77
2018-02-16T06:39:08.550Z,90.06
2018-02-16T06:41:36.272Z,89.99
2018-02-16T06:44:03.874Z,89.86
2018-02-16T06:46:31.770Z,89.62
2018-02-16T06:48:59.676Z,90.21
2018-02-16T06:51:27.430Z,90.39
2018-02-16T06:53:55.183Z,90.02
2018-02-16T06:56:22.812Z,89.50
2018-02-16T06:58:50.866Z,89.21
2018-02-16T07:01:18.907Z,89.44
2018-02-16T07:03:46.950Z,88.74
2018-02-16T07:06:14.622Z,88.32
2018-02-16T07:08:42.247Z,89.12
2018-02-16T07:11:09.899Z,89.24
2018-02-16T07:13:37.495Z,89.91
2018-02-16T07:16:05.331Z,90.66
2018-02-16T07:18:32.975Z,90.56
2018-02-16T07:21:00.558Z,90.38
2018-02-16T07:23:28.111Z,89.83
2018-02-16T07:25:55.663Z,90.10
2018-02-16T07:28:23.191Z,89.38
2018-02-16T07:30:50.745Z,89.91
2018-02-16T07:33:18.288Z,89.22
2018-02-16T07:35:45.845Z,90.04
2018-02-16T07:38:13.369Z,89.31
2018-02-16T07:40:40.926Z,91.41
2018-02-16T07:43:08.516Z,90.69
2018-02-16T07:45:36.133Z,90.30
2018-02-16T07:48:03.713Z,89.96
2018-02-16T07:50:31.316Z,90.56
2018-02-16T07:52:58.864Z,90.51
2018-02-16T07:55:26.439Z,90.56
2018-02-16T07:57:53.987Z,90.68
2018-02-16T08:00:21.613Z,90.84
2018-02-16T08:02:49.151Z,91.71
2018-02-16T08:05:17.327Z,91.23
2018-02-16T08:07:44.920Z,91.70
2018-02-16T08:10:12.799Z,91.38
2018-02-16T08:12:40.586Z,91.44
2018-02-16T08:15:08.883Z,91.59
2018-02-16T08:17:36.478Z,91.46
2018-02-16T08:20:04.067Z,90.84
2018-02-16T08:22:31.733Z,90.58
2018-02-16T08:24:59.419Z,90.25
2018-02-16T08:27:27.069Z,90.25
2018-02-16T08:29:54.923Z,90.02
2018-02-16T08:32:22.523Z,89.97
2018-02-16T08:34:50.393Z,91.29
2018-02-16T08:37:18.158Z,91.76
2018-02-16T08:39:45.824Z,91.18
2018-02-16T08:42:16.226Z,90.92
2018-02-16T08:44:49.904Z,91.22
2018-02-16T08:47:25.211Z,92.36
2018-02-16T08:49:58.119Z,91.42
2018-02-16T08:52:28.842Z,91.23
2018-02-16T08:55:01.694Z,90.92
2018-02-16T08:57:29.702Z,90.72
2018-02-16T08:59:57.252Z,90.37
2018-02-16T09:02:24.850Z,90.48
2018-02-16T09:04:52.658Z,89.89
2018-02-16T09:07:20.304Z,88.86
2018-02-16T09:09:47.856Z,88.43
2018-02-16T09:12:15.509Z,89.14
2018-02-16T09:14:43.383Z,89.53
2018-02-16T09:17:11.014Z,90.60
2018-02-16T09:19:38.544Z,90.08
2018-02-16T09:22:08.391Z,89.46
2018-02-16T09:24:36.123Z,89.21
2018-02-16T09:27:05.873Z,86.19
2018-02-16T09:29:35.623Z,86.09
2018-02-16T09:32:04.159Z,86.26
2018-02-16T09:34:31.730Z,85.03
2018-02-16T09:36:59.730Z,85.16
2018-02-16T09:39:33.133Z,85.24
2018-02-16T09:42:01.362Z,85.81
2018-02-16T09:44:32.538Z,84.59
2018-02-16T09:47:00.290Z,83.78
2018-02-16T09:49:30.192Z,84.19
2018-02-16T09:51:59.522Z,85.70
2018-02-16T09:54:27.544Z,85.93
2018-02-16T09:56:58.294Z,87.04
2018-02-16T09:59:28.304Z,86.78
2018-02-16T10:01:55.956Z,86.77
2018-02-16T10:04:25.073Z,87.40
2018-02-16T10:06:56.025Z,85.61
2018-02-16T10:09:26.107Z,85.24
2018-02-16T10:11:57.588Z,87.07
2018-02-16T10:14:28.161Z,84.71
2018-02-16T10:16:56.384Z,84.58
2018-02-16T10:19:24.341Z,83.14
2018-02-16T10:21:51.948Z,81.41
2018-02-16T10:24:20.046Z,84.81
2018-02-16T10:26:48.247Z,83.14
2018-02-16T10:29:16.480Z,82.53
2018-02-16T10:31:44.381Z,81.67
2018-02-16T10:34:12.052Z,81.41
2018-02-16T10:36:46.035Z,81.60
2018-02-16T10:39:15.955Z,79.08
2018-02-16T10:41:46.008Z,80.76
2018-02-16T10:44:14.308Z,79.77
2018-02-16T10:46:42.321Z,76.95
2018-02-16T10:49:14.217Z,78.08
2018-02-16T10:51:45.024Z,76.90
2018-02-16T10:54:13.672Z,76.95
2018-02-16T10:56:41.605Z,76.38
2018-02-16T10:59:11.187Z,78.96
2018-02-16T11:01:45.826Z,76.86
2018-02-16T11:04:19.313Z,76.15
2018-02-16T11:06:49.866Z,76.90
2018-02-16T11:09:23.271Z,75.90
2018-02-16T11:11:52.851Z,74.74
2018-02-16T11:14:21.118Z,75.45
2018-02-16T11:16:50.620Z,76.08
2018-02-16T11:19:18.298Z,76.18
2018-02-16T11:21:48.678Z,74.87
2018-02-16T11:24:16.206Z,75.99
2018-02-16T11:26:43.731Z,76.87
2018-02-16T11:29:12.233Z,73.94
2018-02-16T11:31:41.636Z,71.93
2018-02-16T11:34:13.267Z,71.36
2018-02-16T11:36:42.769Z,70.70
2018-02-16T11:39:10.421Z,69.40
2018-02-16T11:44:23.259Z,72.25
2018-02-16T11:46:50.998Z,71.84
2018-02-16T11:49:18.555Z,68.53
2018-02-16T11:51:47.256Z,67.78
2018-02-16T11:54:15.007Z,63.43
2018-02-16T11:56:48.106Z,62.10
2018-02-16T11:59:17.514Z,63.66
2018-02-16T12:01:45.045Z,62.08
2018-02-16T12:04:12.740Z,61.50
2018-02-16T12:06:42.456Z,59.83
2018-02-16T12:09:09.969Z,60.76
2018-02-16T12:11:38.987Z,60.70
2018-02-16T12:14:08.107Z,57.05
2018-02-16T12:16:35.698Z,58.79
2018-02-16T12:19:03.386Z,63.03
2018-02-16T12:21:31.384Z,63.90
2018-02-16T12:23:58.912Z,62.69
2018-02-16T12:26:27.714Z,64.83
2018-02-16T12:28:56.993Z,64.97
2018-02-16T12:31:25.190Z,65.95
2018-02-16T12:33:52.768Z,62.43
2018-02-16T12:36:20.294Z,64.82
2018-02-16T12:38:47.900Z,62.43
2018-02-16T12:41:15.426Z,63.03
2018-02-16T12:43:42.977Z,60.62
2018-02-16T12:46:10.534Z,60.75
2018-02-16T12:48:38.083Z,61.15
2018-02-16T12:51:05.611Z,63.92
2018-02-16T12:53:33.156Z,63.27
2018-02-16T12:56:00.691Z,63.94
2018-02-16T12:58:28.267Z,62.63
2018-02-16T13:00:55.819Z,63.46
2018-02-16T13:03:23.346Z,61.32
2018-02-16T13:05:50.903Z,60.75
2018-02-16T13:08:18.423Z,57.15
2018-02-16T13:10:45.980Z,58.67
2018-02-16T13:13:13.501Z,56.99
2018-02-16T13:15:41.054Z,57.61
2018-02-16T13:18:08.583Z,57.69
2018-02-16T13:20:36.158Z,57.88
2018-02-16T13:23:03.690Z,57.19
2018-02-16T13:25:31.243Z,57.47
2018-02-16T13:27:58.767Z,56.95
2018-02-16T13:30:26.344Z,57.99
2018-02-16T13:32:53.875Z,59.27
2018-02-16T13:35:21.399Z,57.23
2018-02-16T13:37:48.953Z,54.39
2018-02-16T13:40:16.478Z,54.28
2018-02-16T13:42:44.031Z,54.46
2018-02-16T13:45:11.558Z,55.45
2018-02-16T13:47:39.838Z,56.62
2018-02-16T13:50:07.364Z,54.21
2018-02-16T13:52:37.314Z,54.51
2018-02-16T13:55:04.842Z,54.87
2018-02-16T13:57:32.394Z,54.73
2018-02-16T13:59:59.918Z,54.31
2018-02-16T14:02:28.474Z,54.99
2018-02-16T14:04:56.003Z,55.32
2018-02-16T14:07:23.525Z,55.44
2018-02-16T14:09:51.081Z,53.63
2018-02-16T14:12:18.607Z,54.40
2018-02-16T14:14:46.154Z,51.79
2018-02-16T14:17:15.752Z,53.39
2018-02-16T14:19:43.489Z,52.10
2018-02-16T14:22:11.014Z,51.44
2018-02-16T14:24:38.569Z,51.88
2018-02-16T14:27:06.446Z,51.40
2018-02-16T14:29:34.101Z,52.25
2018-02-16T14:32:02.557Z,51.08
2018-02-16T14:34:30.278Z,52.11
2018-02-16T14:36:57.859Z,51.80
2018-02-16T14:39:25.408Z,50.43
2018-02-16T14:41:53.024Z,49.85
2018-02-16T14:44:20.611Z,50.43
2018-02-16T14:46:48.266Z,50.00
2018-02-16T14:49:15.891Z,50.17
2018-02-16T14:51:43.447Z,50.22
2018-02-16T14:54:10.973Z,51.49
2018-02-16T14:56:38.524Z,52.19
2018-02-16T14:59:06.129Z,53.40
2018-02-16T15:01:33.946Z,51.04
2018-02-16T15:04:02.483Z,54.07
2018-02-16T15:06:32.248Z,52.26
2018-02-16T15:09:00.311Z,53.84
2018-02-16T15:11:27.836Z,52.77
2018-02-16T15:13:55.392Z,53.21
2018-02-16T15:16:22.910Z,52.06
2018-02-16T15:18:50.462Z,51.87
2018-02-16T15:21:19.849Z,52.62
2018-02-16T15:23:47.550Z,52.13
2018-02-16T15:26:15.076Z,52.05
2018-02-16T15:28:42.631Z,52.72
2018-02-16T15:31:10.253Z,52.22
2018-02-16T15:33:37.836Z,53.27
2018-02-16T15:36:06.555Z,53.83
2018-02-16T15:38:34.087Z,54.28
2018-02-16T15:41:01.631Z,54.47
2018-02-16T15:43:29.168Z,54.72
2018-02-16T15:45:56.721Z,54.90
2018-02-16T15:48:24.247Z,54.85
2018-02-16T15:50:51.844Z,57.43
2018-02-16T15:53:19.403Z,58.67
2018-02-16T15:55:47.076Z,57.25
2018-02-16T15:58:14.608Z,58.90
2018-02-16T16:00:42.592Z,59.67
2018-02-16T16:03:10.937Z,59.61
2018-02-16T16:05:39.063Z,56.74
2018-02-16T16:08:07.137Z,56.10
2018-02-16T16:10:37.192Z,56.72
2018-02-16T16:13:05.168Z,57.12
2018-02-16T16:15:32.725Z,56.88
2018-02-16T16:18:00.320Z,55.72
2018-02-16T16:20:27.850Z,56.49
2018-02-16T16:22:55.431Z,57.27
2018-02-16T16:25:22.951Z,58.54
2018-02-16T16:27:50.507Z,58.34
2018-02-16T16:30:18.112Z,59.54
2018-02-16T16:32:45.676Z,59.69
2018-02-16T16:35:13.238Z,60.78
2018-02-16T16:37:40.766Z,63.22
2018-02-16T16:40:08.368Z,64.35
2018-02-16T16:42:35.903Z,66.53
2018-02-16T16:45:03.475Z,66.95
2018-02-16T16:47:30.994Z,66.38
2018-02-16T16:49:58.577Z,65.70
2018-02-16T16:52:26.130Z,66.62
2018-02-16T16:54:53.711Z,67.08
2018-02-16T16:57:21.235Z,67.42
2018-02-16T16:59:48.762Z,68.02
2018-02-16T17:02:20.488Z,69.18
2018-02-16T17:04:50.237Z,70.01
2018-02-16T17:07:19.596Z,69.59
2018-02-16T17:09:48.195Z,69.73
2018-02-16T17:12:16.866Z,70.21
2018-02-16T17:14:45.124Z,70.31
2018-02-16T17:17:12.802Z,70.22
2018-02-16T17:19:43.475Z,70.06
2018-02-16T17:22:11.239Z,70.34
2018-02-16T17:24:41.212Z,70.43
2018-02-16T17:27:08.856Z,71.12
2018-02-16T17:29:37.059Z,71.95
2018-02-16T17:32:04.619Z,72.18
2018-02-16T17:34:32.415Z,72.12
2018-02-16T17:37:00.578Z,71.82
2018-02-16T17:39:28.250Z,72.32
2018-02-16T17:41:55.776Z,71.89
2018-02-16T17:44:23.354Z,71.55
2018-02-16T17:46:50.881Z,71.69
2018-02-16T17:49:18.831Z,71.07
2018-02-16T17:51:47.438Z,71.49
2018-02-16T17:54:19.747Z,72.95
2018-02-16T17:56:48.153Z,76.67
2018-02-16T17:59:15.691Z,76.02
2018-02-16T18:01:43.518Z,79.08
2018-02-16T18:04:11.173Z,78.40
2018-02-16T18:06:40.523Z,79.56
2018-02-16T18:09:08.677Z,78.36
2018-02-16T18:11:36.454Z,76.94
2018-02-16T18:14:06.626Z,76.85
2018-02-16T18:16:36.102Z,76.36
2018-02-16T18:19:03.746Z,74.73
2018-02-16T18:21:42.927Z,74.84
2018-02-16T18:24:13.035Z,76.06
2018-02-16T18:26:40.814Z,75.66
2018-02-16T18:29:08.400Z,75.37
2018-02-16T18:31:35.928Z,75.06
2018-02-16T18:34:03.504Z,75.39
2018-02-16T18:36:35.983Z,75.20
2018-02-16T18:39:04.027Z,75.18
2018-02-16T18:41:31.596Z,75.04
2018-02-16T18:43:59.179Z,75.60
2018-02-16T18:46:26.736Z,76.11
2018-02-16T18:48:54.442Z,76.87
2018-02-16T18:51:22.443Z,76.40
2018-02-16T18:53:50.005Z,76.54
2018-02-16T18:56:17.763Z,75.78
2018-02-16T18:58:45.351Z,75.23
2018-02-16T19:01:13.079Z,75.60
2018-02-16T19:03:40.903Z,75.79
2018-02-16T19:06:08.483Z,76.57
2018-02-16T19:08:36.125Z,76.58
2018-02-16T19:11:03.856Z,76.81
2018-02-16T19:13:31.410Z,77.05
2018-02-16T19:16:00.760Z,79.12
2018-02-16T19:18:28.343Z,77.61
2018-02-16T19:20:55.868Z,77.32
2018-02-16T19:23:23.420Z,77.26
2018-02-16T19:25:50.951Z,76.88
2018-02-16T19:28:18.522Z,76.62
2018-02-16T19:30:46.092Z,76.61
2018-02-16T19:33:13.655Z,77.21
2018-02-16T19:35:41.381Z,77.55
2018-02-16T19:38:09.032Z,77.37
2018-02-16T19:40:37.050Z,77.04
2018-02-16T19:43:04.635Z,77.39
2018-02-16T19:45:32.194Z,77.92
2018-02-16T19:48:00.200Z,77.58
2018-02-16T19:50:27.770Z,77.91
2018-02-16T19:52:55.311Z,77.90
2018-02-16T19:55:22.896Z,78.17
2018-02-16T19:57:50.434Z,78.33
2018-02-16T20:00:18.401Z,78.64
2018-02-16T20:02:46.956Z,78.51
2018-02-16T20:05:18.575Z,78.66
2018-02-16T20:07:46.613Z,79.06
2018-02-16T20:10:14.863Z,78.70
2018-02-16T20:12:42.968Z,78.75
2018-02-16T20:15:11.320Z,79.14
2018-02-16T20:17:38.876Z,79.63
2018-02-16T20:20:06.466Z,79.10
2018-02-16T20:22:34.323Z,79.25
2018-02-16T20:25:10.374Z,79.54
2018-02-16T20:27:38.254Z,80.44
2018-02-16T20:30:05.809Z,80.21
2018-02-16T20:32:33.476Z,80.07
2018-02-16T20:35:01.238Z,79.66
2018-02-16T20:37:28.896Z,79.72
2018-02-16T20:39:56.435Z,79.20
2018-02-16T20:42:24.015Z,79.02
2018-02-16T20:44:51.666Z,79.46
2018-02-16T20:47:19.195Z,78.79
2018-02-16T20:49:46.774Z,79.06
2018-02-16T20:52:14.864Z,78.84
2018-02-16T20:54:42.948Z,79.31
2018-02-16T20:57:10.807Z,79.16
2018-02-16T20:59:39.861Z,79.30
2018-02-16T21:02:07.586Z,79.09
2018-02-16T21:04:35.119Z,80.21
2018-02-16T21:07:04.290Z,79.83
2018-02-16T21:09:32.268Z,80.32
2018-02-16T21:12:01.917Z,79.65
2018-02-16T21:14:29.737Z,79.32
2018-02-16T21:16:57.843Z,79.35
2018-02-16T21:19:25.450Z,80.07
2018-02-16T21:21:53.003Z,80.42
2018-02-16T21:24:20.623Z,80.20
2018-02-16T21:26:48.180Z,80.71
2018-02-16T21:29:15.711Z,81.07
2018-02-16T21:31:43.392Z,80.90
2018-02-16T21:34:11.886Z,80.94
2018-02-16T21:36:39.543Z,80.84
2018-02-16T21:39:07.141Z,80.90
2018-02-16T21:41:34.670Z,83.63
2018-02-16T21:44:02.222Z,83.25
2018-02-16T21:46:29.748Z,82.52
2018-02-16T21:48:57.329Z,82.98
2018-02-16T21:51:24.850Z,84.62
2018-02-16T21:53:59.093Z,84.03
2018-02-16T21:56:28.079Z,82.65
2018-02-16T21:58:56.274Z,82.04
2018-02-16T22:01:24.712Z,82.14
2018-02-16T22:03:52.415Z,81.53
2018-02-16T22:06:20.484Z,81.74
2018-02-16T22:08:48.299Z,82.68
2018-02-16T22:11:19.046Z,81.97
2018-02-16T22:13:46.824Z,82.10
2018-02-16T22:16:14.378Z,82.24
2018-02-16T22:18:42.295Z,81.70
2018-02-16T22:21:09.935Z,82.75
2018-02-16T22:23:37.927Z,82.35
2018-02-16T22:26:05.534Z,82.82
2018-02-16T22:28:33.742Z,84.48
2018-02-16T22:31:01.320Z,85.46
2018-02-16T22:33:29.088Z,87.43
2018-02-16T22:35:57.140Z,86.98
2018-02-16T22:38:24.748Z,85.76
2018-02-16T22:40:52.298Z,84.51
2018-02-16T22:43:19.875Z,83.77
2018-02-16T22:45:47.430Z,82.89
2018-02-16T22:48:15.024Z,83.07
2018-02-16T22:50:42.682Z,85.35
2018-02-16T22:53:10.260Z,85.95
2018-02-16T22:55:37.811Z,84.93
2018-02-16T22:58:06.367Z,84.02
2018-02-16T23:00:33.994Z,82.89
2018-02-16T23:03:01.519Z,83.16
2018-02-16T23:05:29.177Z,82.65
2018-02-16T23:07:56.839Z,82.98
2018-02-16T23:10:24.403Z,83.23
2018-02-16T23:12:51.957Z,82.35
2018-02-16T23:15:19.530Z,82.21
2018-02-16T23:17:47.063Z,81.73
2018-02-16T23:20:14.767Z,81.58
2018-02-16T23:22:42.504Z,81.44
2018-02-16T23:25:10.165Z,81.29
2018-02-16T23:27:37.696Z,81.08
2018-02-16T23:30:05.243Z,81.22
2018-02-16T23:32:32.948Z,81.40
2018-02-16T23:35:00.502Z,82.21
2018-02-16T23:37:28.164Z,81.82
2018-02-16T23:39:55.848Z,81.78
2018-02-16T23:42:23.512Z,81.81
2018-02-16T23:44:51.024Z,81.68
2018-02-16T23:47:18.608Z,81.75
2018-02-16T23:49:46.226Z,82.69
2018-02-16T23:52:13.766Z,82.84
2018-02-16T23:54:41.435Z,83.37
2018-02-16T23:57:08.975Z,83.06
2018-02-16T23:59:36.570Z,82.75
